createdAt,value
2023-03-01T00:00:29.463Z,-1.12
2023-03-01T00:08:04.859Z,-1.14
2023-03-01T00:15:41.474Z,-1.17
2023-03-01T00:23:16.954Z,-1.25
2023-03-01T00:30:51.482Z,-1.33
2023-03-01T00:38:26.946Z,-1.32
2023-03-01T00:46:03.170Z,-1.36
2023-03-01T00:53:39.290Z,-1.43
2023-03-01T01:01:19.238Z,-1.48
2023-03-01T01:08:56.677Z,-1.55
2023-03-01T01:16:31.648Z,-1.64
2023-03-01T01:24:08.039Z,-1.67
2023-03-01T01:31:43.956Z,-1.64
2023-03-01T01:39:19.423Z,-1.75
2023-03-01T01:46:56.765Z,-1.77
2023-03-01T01:54:39.014Z,-1.84
2023-03-01T02:02:14.126Z,-1.85
2023-03-01T02:09:51.578Z,-1.90
2023-03-01T02:25:49.285Z,-1.97
2023-03-01T02:33:24.620Z,-2.02
2023-03-01T02:40:59.658Z,-2.02
2023-03-01T02:48:44.499Z,-2.11
2023-03-01T02:56:18.842Z,-2.21
2023-03-01T03:03:54.144Z,-2.18
2023-03-01T03:11:28.366Z,-2.18
2023-03-01T03:19:06.202Z,-2.22
2023-03-01T03:26:40.225Z,-2.24
2023-03-01T03:34:19.290Z,-2.26
2023-03-01T03:41:53.257Z,-2.26
2023-03-01T03:49:28.513Z,-2.29
2023-03-01T03:57:02.181Z,-2.33
2023-03-01T04:04:37.489Z,-2.35
2023-03-01T04:12:11.373Z,-2.39
2023-03-01T04:19:49.809Z,-2.46
2023-03-01T04:27:23.745Z,-2.51
2023-03-01T04:34:59.125Z,-2.52
2023-03-01T04:42:34.038Z,-2.52
2023-03-01T04:50:11.559Z,-2.58
2023-03-01T04:57:45.959Z,-2.61
2023-03-01T05:05:22.599Z,-2.63
2023-03-01T05:12:58.586Z,-2.65
2023-03-01T05:20:37.325Z,-2.71
2023-03-01T05:28:13.930Z,-2.74
2023-03-01T05:35:49.554Z,-2.75
2023-03-01T05:43:24.009Z,-2.78
2023-03-01T05:58:53.826Z,-2.79
2023-03-01T06:06:29.463Z,-2.76
2023-03-01T06:14:03.736Z,-2.79
2023-03-01T06:21:39.084Z,-2.77
2023-03-01T06:29:12.986Z,-2.73
2023-03-01T06:36:48.759Z,-2.68
2023-03-01T06:44:22.848Z,-2.61
2023-03-01T06:51:58.850Z,-2.52
2023-03-01T06:59:32.669Z,-2.41
2023-03-01T07:07:07.866Z,-2.32
2023-03-01T07:14:41.853Z,-2.16
2023-03-01T07:22:17.546Z,-1.98
2023-03-01T07:29:51.354Z,-1.80
2023-03-01T07:37:26.396Z,-1.59
2023-03-01T07:45:00.268Z,-1.34
2023-03-01T07:52:35.497Z,-0.95
2023-03-01T08:00:12.416Z,-0.48
2023-03-01T08:07:47.607Z,-0.04
2023-03-01T08:23:14.458Z,0.97
2023-03-01T08:30:48.715Z,1.50
2023-03-01T08:38:24.024Z,2.33
2023-03-01T08:45:58.498Z,2.90
2023-03-01T08:53:33.841Z,3.01
2023-03-01T09:01:10.247Z,3.62
2023-03-01T09:08:47.542Z,4.06
2023-03-01T09:16:23.081Z,4.49
2023-03-01T09:31:51.225Z,4.92
2023-03-01T09:39:27.686Z,5.34
2023-03-01T09:47:02.462Z,6.07
2023-03-01T09:54:37.885Z,6.10
2023-03-01T10:02:26.029Z,6.24
2023-03-01T10:10:05.000Z,5.83
2023-03-01T10:17:44.121Z,5.90
2023-03-01T10:25:29.491Z,5.56
2023-03-01T10:33:04.093Z,5.41
2023-03-01T10:40:52.229Z,5.13
2023-03-01T10:48:28.758Z,5.30
2023-03-01T10:56:07.574Z,5.70
2023-03-01T11:03:41.490Z,5.58
2023-03-01T11:11:34.047Z,5.27
2023-03-01T11:19:20.658Z,5.42
2023-03-01T11:26:57.443Z,5.24
2023-03-01T11:34:50.539Z,5.15
2023-03-01T11:42:35.153Z,5.31
2023-03-01T11:58:35.446Z,5.41
2023-03-01T12:06:25.197Z,5.59
2023-03-01T12:14:23.186Z,5.94
2023-03-01T12:22:11.821Z,6.09
2023-03-01T12:29:56.680Z,6.40
2023-03-01T12:37:43.098Z,6.40
2023-03-01T12:45:37.133Z,6.30
2023-03-01T13:01:25.086Z,6.34
2023-03-01T13:09:05.124Z,6.28
2023-03-01T13:16:46.021Z,6.35
2023-03-01T13:24:27.809Z,6.42
2023-03-01T13:32:05.383Z,6.39
2023-03-01T13:39:42.606Z,6.40
2023-03-01T13:47:20.017Z,6.46
2023-03-01T13:54:57.025Z,6.52
2023-03-01T14:02:32.598Z,6.55
2023-03-01T14:18:10.922Z,6.58
2023-03-01T14:25:50.508Z,6.51
2023-03-01T14:33:28.623Z,6.58
2023-03-01T14:41:07.832Z,6.60
2023-03-01T14:48:43.473Z,6.51
2023-03-01T14:56:18.790Z,6.51
2023-03-01T15:03:56.490Z,6.74
2023-03-01T15:11:32.282Z,6.81
2023-03-01T15:19:09.363Z,6.79
2023-03-01T15:26:46.726Z,6.79
2023-03-01T15:34:28.348Z,6.80
2023-03-01T15:42:03.380Z,6.82
2023-03-01T15:49:54.332Z,6.85
2023-03-01T15:57:29.540Z,6.83
2023-03-01T16:05:05.181Z,6.82
2023-03-01T16:12:40.234Z,6.74
2023-03-01T16:36:04.150Z,6.18
2023-03-01T16:43:37.953Z,5.88
2023-03-01T16:51:13.566Z,5.63
2023-03-01T16:58:47.847Z,5.37
2023-03-01T17:06:25.891Z,5.09
2023-03-01T17:13:59.886Z,4.88
2023-03-01T17:21:35.343Z,4.68
2023-03-01T17:29:09.717Z,4.47
2023-03-01T17:36:46.958Z,4.24
2023-03-01T17:44:21.051Z,4.10
2023-03-01T17:51:56.518Z,3.91
2023-03-01T17:59:33.353Z,3.75
2023-03-01T18:07:08.476Z,3.57
2023-03-01T18:22:34.972Z,3.31
2023-03-01T18:30:13.815Z,3.20
2023-03-01T18:37:49.795Z,3.01
2023-03-01T18:45:24.107Z,2.88
2023-03-01T18:52:59.692Z,2.71
2023-03-01T19:00:34.842Z,2.57
2023-03-01T19:08:10.182Z,2.42
2023-03-01T19:15:44.307Z,2.23
2023-03-01T19:23:19.633Z,2.15
2023-03-01T19:30:53.589Z,1.92
2023-03-01T19:38:29.436Z,1.80
2023-03-01T19:53:56.442Z,1.67
2023-03-01T20:01:30.667Z,1.59
2023-03-01T20:09:20.257Z,1.49
2023-03-01T20:16:54.599Z,1.41
2023-03-01T20:24:31.954Z,1.30
2023-03-01T20:32:06.386Z,1.13
2023-03-01T20:39:41.731Z,1.01
2023-03-01T20:47:17.090Z,0.91
2023-03-01T20:54:52.163Z,0.84
2023-03-01T21:02:26.088Z,0.78
2023-03-01T21:10:01.592Z,0.67
2023-03-01T21:17:35.740Z,0.65
2023-03-01T21:25:11.764Z,0.64
2023-03-01T21:32:45.666Z,0.54
2023-03-01T21:40:21.384Z,0.43
2023-03-01T21:47:55.193Z,0.44
2023-03-01T21:55:30.797Z,0.42
2023-03-01T22:03:04.655Z,0.39
2023-03-01T22:10:43.726Z,0.31
2023-03-01T22:18:17.977Z,0.31
2023-03-01T22:25:53.280Z,0.25
2023-03-01T22:33:27.118Z,0.22
2023-03-01T22:41:04.775Z,0.11
2023-03-01T22:48:38.824Z,-0.07
2023-03-01T22:56:16.069Z,-0.12
2023-03-01T23:03:50.794Z,-0.15
2023-03-01T23:11:27.270Z,-0.15
2023-03-01T23:19:01.302Z,-0.13
2023-03-01T23:34:28.978Z,-0.23
2023-03-01T23:42:04.221Z,-0.22
2023-03-01T23:49:38.297Z,-0.26
2023-03-01T23:57:13.570Z,-0.30
